sensor_id;sensor_type;location;lat;lon;timestamp;P1;durP1;ratioP1;P2;durP2;ratioP2
14681;SDS011;7429;52.498;13.480;2022-07-30T00:01:55;6.97;;;3.60;;
14681;SDS011;7429;52.498;13.480;2022-07-30T00:04:58;7.80;;;3.72;;
14681;SDS011;7429;52.498;13.480;2022-07-30T00:08:02;5.25;;;3.20;;
14681;SDS011;7429;52.498;13.480;2022-07-30T00:11:05;7.53;;;3.60;;
14681;SDS011;7429;52.498;13.480;2022-07-30T00:14:11;6.60;;;3.40;;
14681;SDS011;7429;52.498;13.480;2022-07-30T00:17:14;8.02;;;3.60;;
14681;SDS011;7429;52.498;13.480;2022-07-30T00:20:17;4.70;;;3.00;;
14681;SDS011;7429;52.498;13.480;2022-07-30T00:23:21;4.88;;;3.78;;
14681;SDS011;7429;52.498;13.480;2022-07-30T00:26:24;5.93;;;3.55;;
14681;SDS011;7429;52.498;13.480;2022-07-30T00:29:28;6.50;;;3.50;;
14681;SDS011;7429;52.498;13.480;2022-07-30T00:32:34;3.78;;;3.28;;
14681;SDS011;7429;52.498;13.480;2022-07-30T00:35:37;6.82;;;3.55;;
14681;SDS011;7429;52.498;13.480;2022-07-30T00:38:41;6.00;;;3.55;;
14681;SDS011;7429;52.498;13.480;2022-07-30T00:41:54;5.85;;;3.28;;
14681;SDS011;7429;52.498;13.480;2022-07-30T00:45:01;5.10;;;3.58;;
14681;SDS011;7429;52.498;13.480;2022-07-30T00:48:05;4.15;;;3.78;;
14681;SDS011;7429;52.498;13.480;2022-07-30T00:51:08;4.25;;;3.85;;
14681;SDS011;7429;52.498;13.480;2022-07-30T00:54:12;4.22;;;3.75;;
14681;SDS011;7429;52.498;13.480;2022-07-30T00:57:15;5.32;;;4.28;;
14681;SDS011;7429;52.498;13.480;2022-07-30T01:00:20;6.53;;;3.95;;
14681;SDS011;7429;52.498;13.480;2022-07-30T01:03:23;4.60;;;3.40;;
14681;SDS011;7429;52.498;13.480;2022-07-30T01:06:26;5.85;;;4.03;;
14681;SDS011;7429;52.498;13.480;2022-07-30T01:09:30;7.90;;;4.03;;
14681;SDS011;7429;52.498;13.480;2022-07-30T01:12:33;7.30;;;3.97;;
14681;SDS011;7429;52.498;13.480;2022-07-30T01:15:38;4.90;;;4.00;;
14681;SDS011;7429;52.498;13.480;2022-07-30T01:18:41;7.50;;;4.70;;
14681;SDS011;7429;52.498;13.480;2022-07-30T01:22:07;6.65;;;3.92;;
14681;SDS011;7429;52.498;13.480;2022-07-30T01:25:16;4.93;;;4.50;;
14681;SDS011;7429;52.498;13.480;2022-07-30T01:28:32;5.72;;;4.15;;
14681;SDS011;7429;52.498;13.480;2022-07-30T01:31:40;8.77;;;4.32;;
14681;SDS011;7429;52.498;13.480;2022-07-30T01:34:46;5.35;;;3.58;;
14681;SDS011;7429;52.498;13.480;2022-07-30T01:37:53;4.72;;;3.45;;
14681;SDS011;7429;52.498;13.480;2022-07-30T01:40:58;3.72;;;3.25;;
14681;SDS011;7429;52.498;13.480;2022-07-30T01:44:03;6.18;;;4.25;;
14681;SDS011;7429;52.498;13.480;2022-07-30T01:47:08;4.10;;;3.70;;
14681;SDS011;7429;52.498;13.480;2022-07-30T01:50:16;8.80;;;3.42;;
14681;SDS011;7429;52.498;13.480;2022-07-30T01:53:24;6.93;;;4.03;;
14681;SDS011;7429;52.498;13.480;2022-07-30T01:56:31;8.10;;;3.58;;
14681;SDS011;7429;52.498;13.480;2022-07-30T01:59:40;4.63;;;3.35;;
14681;SDS011;7429;52.498;13.480;2022-07-30T02:02:47;6.10;;;3.90;;
14681;SDS011;7429;52.498;13.480;2022-07-30T02:05:51;9.15;;;4.20;;
14681;SDS011;7429;52.498;13.480;2022-07-30T02:09:00;7.18;;;3.70;;
14681;SDS011;7429;52.498;13.480;2022-07-30T02:12:11;5.55;;;4.20;;
14681;SDS011;7429;52.498;13.480;2022-07-30T02:15:37;9.80;;;4.43;;
14681;SDS011;7429;52.498;13.480;2022-07-30T02:18:49;8.07;;;4.38;;
14681;SDS011;7429;52.498;13.480;2022-07-30T02:22:05;7.72;;;4.22;;
14681;SDS011;7429;52.498;13.480;2022-07-30T02:25:13;5.25;;;3.80;;
14681;SDS011;7429;52.498;13.480;2022-07-30T02:28:21;8.25;;;4.57;;
14681;SDS011;7429;52.498;13.480;2022-07-30T02:31:27;4.50;;;3.60;;
14681;SDS011;7429;52.498;13.480;2022-07-30T02:34:33;10.32;;;4.55;;
14681;SDS011;7429;52.498;13.480;2022-07-30T02:37:40;6.47;;;3.70;;
14681;SDS011;7429;52.498;13.480;2022-07-30T02:40:45;4.82;;;3.83;;
14681;SDS011;7429;52.498;13.480;2022-07-30T02:43:51;7.18;;;3.72;;
14681;SDS011;7429;52.498;13.480;2022-07-30T02:46:57;4.78;;;3.83;;
14681;SDS011;7429;52.498;13.480;2022-07-30T02:50:24;4.78;;;3.70;;
14681;SDS011;7429;52.498;13.480;2022-07-30T02:53:30;9.95;;;3.88;;
14681;SDS011;7429;52.498;13.480;2022-07-30T02:56:35;7.68;;;4.30;;
14681;SDS011;7429;52.498;13.480;2022-07-30T02:59:40;5.45;;;3.90;;
14681;SDS011;7429;52.498;13.480;2022-07-30T03:02:47;5.43;;;3.95;;
14681;SDS011;7429;52.498;13.480;2022-07-30T03:05:57;5.45;;;3.78;;
14681;SDS011;7429;52.498;13.480;2022-07-30T03:09:03;4.93;;;3.60;;
14681;SDS011;7429;52.498;13.480;2022-07-30T03:12:09;4.65;;;3.53;;
14681;SDS011;7429;52.498;13.480;2022-07-30T03:15:14;5.78;;;3.83;;
14681;SDS011;7429;52.498;13.480;2022-07-30T03:18:19;5.10;;;3.58;;
14681;SDS011;7429;52.498;13.480;2022-07-30T03:21:24;4.00;;;3.53;;
14681;SDS011;7429;52.498;13.480;2022-07-30T03:24:28;5.85;;;4.03;;
14681;SDS011;7429;52.498;13.480;2022-07-30T03:27:34;3.85;;;3.13;;
14681;SDS011;7429;52.498;13.480;2022-07-30T03:30:39;4.28;;;3.92;;
14681;SDS011;7429;52.498;13.480;2022-07-30T03:33:46;3.70;;;3.28;;
14681;SDS011;7429;52.498;13.480;2022-07-30T03:36:50;4.15;;;3.28;;
14681;SDS011;7429;52.498;13.480;2022-07-30T03:39:54;4.80;;;4.30;;
14681;SDS011;7429;52.498;13.480;2022-07-30T03:43:00;5.68;;;3.67;;
14681;SDS011;7429;52.498;13.480;2022-07-30T03:46:05;5.32;;;3.58;;
14681;SDS011;7429;52.498;13.480;2022-07-30T03:49:15;7.05;;;4.05;;
14681;SDS011;7429;52.498;13.480;2022-07-30T03:52:21;4.38;;;3.40;;
14681;SDS011;7429;52.498;13.480;2022-07-30T03:55:25;4.75;;;3.85;;
14681;SDS011;7429;52.498;13.480;2022-07-30T03:58:47;5.30;;;3.33;;
14681;SDS011;7429;52.498;13.480;2022-07-30T04:01:50;5.63;;;2.80;;
14681;SDS011;7429;52.498;13.480;2022-07-30T04:05:06;9.32;;;3.22;;
14681;SDS011;7429;52.498;13.480;2022-07-30T04:08:11;3.83;;;3.35;;
14681;SDS011;7429;52.498;13.480;2022-07-30T04:11:17;6.43;;;3.20;;
14681;SDS011;7429;52.498;13.480;2022-07-30T04:14:43;3.28;;;2.97;;
14681;SDS011;7429;52.498;13.480;2022-07-30T04:17:48;3.95;;;2.45;;
14681;SDS011;7429;52.498;13.480;2022-07-30T04:21:00;6.68;;;3.58;;
14681;SDS011;7429;52.498;13.480;2022-07-30T04:24:16;3.63;;;3.22;;
14681;SDS011;7429;52.498;13.480;2022-07-30T04:27:21;8.63;;;4.10;;
14681;SDS011;7429;52.498;13.480;2022-07-30T04:30:26;4.93;;;3.28;;
14681;SDS011;7429;52.498;13.480;2022-07-30T04:33:29;7.80;;;3.75;;
14681;SDS011;7429;52.498;13.480;2022-07-30T04:36:51;8.15;;;3.95;;
14681;SDS011;7429;52.498;13.480;2022-07-30T04:39:54;3.65;;;3.35;;
14681;SDS011;7429;52.498;13.480;2022-07-30T04:42:59;3.67;;;3.35;;
14681;SDS011;7429;52.498;13.480;2022-07-30T04:46:03;3.97;;;3.78;;
14681;SDS011;7429;52.498;13.480;2022-07-30T04:49:06;6.35;;;4.47;;
14681;SDS011;7429;52.498;13.480;2022-07-30T04:52:11;6.75;;;4.97;;
14681;SDS011;7429;52.498;13.480;2022-07-30T04:55:16;5.63;;;3.40;;
14681;SDS011;7429;52.498;13.480;2022-07-30T04:58:22;5.82;;;3.53;;
14681;SDS011;7429;52.498;13.480;2022-07-30T05:01:28;7.70;;;3.28;;
14681;SDS011;7429;52.498;13.480;2022-07-30T05:04:42;5.47;;;4.95;;
14681;SDS011;7429;52.498;13.480;2022-07-30T05:07:48;4.57;;;4.28;;
14681;SDS011;7429;52.498;13.480;2022-07-30T05:10:52;9.70;;;3.83;;
14681;SDS011;7429;52.498;13.480;2022-07-30T05:13:56;4.72;;;4.05;;
14681;SDS011;7429;52.498;13.480;2022-07-30T05:17:00;5.78;;;4.00;;
14681;SDS011;7429;52.498;13.480;2022-07-30T05:20:06;3.80;;;3.50;;
14681;SDS011;7429;52.498;13.480;2022-07-30T05:23:27;5.93;;;5.03;;
14681;SDS011;7429;52.498;13.480;2022-07-30T05:26:38;4.53;;;3.40;;
14681;SDS011;7429;52.498;13.480;2022-07-30T05:29:45;6.78;;;3.65;;
14681;SDS011;7429;52.498;13.480;2022-07-30T05:32:52;5.90;;;3.83;;
14681;SDS011;7429;52.498;13.480;2022-07-30T05:35:56;4.38;;;3.97;;
14681;SDS011;7429;52.498;13.480;2022-07-30T05:39:02;4.25;;;3.72;;
14681;SDS011;7429;52.498;13.480;2022-07-30T05:42:13;4.25;;;3.85;;
14681;SDS011;7429;52.498;13.480;2022-07-30T05:45:21;5.63;;;5.13;;
14681;SDS011;7429;52.498;13.480;2022-07-30T05:48:25;9.35;;;3.70;;
14681;SDS011;7429;52.498;13.480;2022-07-30T05:51:28;5.40;;;4.90;;
14681;SDS011;7429;52.498;13.480;2022-07-30T05:54:32;5.57;;;4.82;;
14681;SDS011;7429;52.498;13.480;2022-07-30T05:57:55;5.60;;;5.30;;
14681;SDS011;7429;52.498;13.480;2022-07-30T06:00:59;4.57;;;4.15;;
14681;SDS011;7429;52.498;13.480;2022-07-30T06:04:04;6.68;;;4.35;;
14681;SDS011;7429;52.498;13.480;2022-07-30T06:07:22;6.30;;;5.80;;
14681;SDS011;7429;52.498;13.480;2022-07-30T06:10:29;4.63;;;3.85;;
14681;SDS011;7429;52.498;13.480;2022-07-30T06:13:33;7.53;;;6.47;;
14681;SDS011;7429;52.498;13.480;2022-07-30T06:16:41;5.82;;;4.95;;
14681;SDS011;7429;52.498;13.480;2022-07-30T06:19:45;6.22;;;4.57;;
14681;SDS011;7429;52.498;13.480;2022-07-30T06:22:49;6.32;;;4.93;;
14681;SDS011;7429;52.498;13.480;2022-07-30T06:26:26;4.60;;;4.25;;
14681;SDS011;7429;52.498;13.480;2022-07-30T06:29:29;6.18;;;4.07;;
14681;SDS011;7429;52.498;13.480;2022-07-30T06:32:33;5.88;;;5.25;;
14681;SDS011;7429;52.498;13.480;2022-07-30T06:35:37;5.32;;;4.88;;
14681;SDS011;7429;52.498;13.480;2022-07-30T06:38:41;5.82;;;2.97;;
14681;SDS011;7429;52.498;13.480;2022-07-30T06:41:49;5.35;;;4.85;;
14681;SDS011;7429;52.498;13.480;2022-07-30T06:44:52;5.68;;;3.45;;
14681;SDS011;7429;52.498;13.480;2022-07-30T06:47:59;5.68;;;2.90;;
14681;SDS011;7429;52.498;13.480;2022-07-30T06:51:05;3.75;;;3.22;;
14681;SDS011;7429;52.498;13.480;2022-07-30T06:54:09;4.60;;;3.20;;
14681;SDS011;7429;52.498;13.480;2022-07-30T06:57:49;5.95;;;3.83;;
14681;SDS011;7429;52.498;13.480;2022-07-30T07:01:30;3.42;;;2.63;;
14681;SDS011;7429;52.498;13.480;2022-07-30T07:04:34;3.42;;;3.20;;
14681;SDS011;7429;52.498;13.480;2022-07-30T07:07:37;4.35;;;2.88;;
14681;SDS011;7429;52.498;13.480;2022-07-30T07:10:51;7.40;;;3.17;;
14681;SDS011;7429;52.498;13.480;2022-07-30T07:14:02;5.78;;;2.90;;
14681;SDS011;7429;52.498;13.480;2022-07-30T07:17:08;3.28;;;2.95;;
14681;SDS011;7429;52.498;13.480;2022-07-30T07:20:36;4.15;;;2.80;;
14681;SDS011;7429;52.498;13.480;2022-07-30T07:23:42;4.55;;;2.53;;
14681;SDS011;7429;52.498;13.480;2022-07-30T07:27:05;3.78;;;2.80;;
14681;SDS011;7429;52.498;13.480;2022-07-30T07:30:18;3.10;;;2.78;;
14681;SDS011;7429;52.498;13.480;2022-07-30T07:33:22;4.10;;;3.70;;
14681;SDS011;7429;52.498;13.480;2022-07-30T07:36:25;3.80;;;2.88;;
14681;SDS011;7429;52.498;13.480;2022-07-30T07:39:29;5.70;;;2.90;;
14681;SDS011;7429;52.498;13.480;2022-07-30T07:42:32;4.18;;;3.10;;
14681;SDS011;7429;52.498;13.480;2022-07-30T07:45:36;3.63;;;3.13;;
14681;SDS011;7429;52.498;13.480;2022-07-30T07:48:41;6.97;;;4.18;;
14681;SDS011;7429;52.498;13.480;2022-07-30T07:51:59;13.23;;;3.20;;
14681;SDS011;7429;52.498;13.480;2022-07-30T07:55:03;3.30;;;2.90;;
14681;SDS011;7429;52.498;13.480;2022-07-30T07:58:09;6.47;;;5.05;;
14681;SDS011;7429;52.498;13.480;2022-07-30T08:01:27;3.65;;;3.35;;
14681;SDS011;7429;52.498;13.480;2022-07-30T08:05:02;3.90;;;3.38;;
14681;SDS011;7429;52.498;13.480;2022-07-30T08:08:06;4.88;;;3.55;;
14681;SDS011;7429;52.498;13.480;2022-07-30T08:11:28;5.03;;;3.13;;
14681;SDS011;7429;52.498;13.480;2022-07-30T08:14:52;5.75;;;4.38;;
14681;SDS011;7429;52.498;13.480;2022-07-30T08:18:20;4.63;;;3.78;;
14681;SDS011;7429;52.498;13.480;2022-07-30T08:21:34;4.45;;;2.85;;
14681;SDS011;7429;52.498;13.480;2022-07-30T08:24:37;4.68;;;2.90;;
14681;SDS011;7429;52.498;13.480;2022-07-30T08:27:42;3.50;;;3.20;;
14681;SDS011;7429;52.498;13.480;2022-07-30T08:30:45;8.13;;;2.95;;
14681;SDS011;7429;52.498;13.480;2022-07-30T08:33:52;6.63;;;3.70;;
14681;SDS011;7429;52.498;13.480;2022-07-30T08:36:56;3.60;;;2.58;;
14681;SDS011;7429;52.498;13.480;2022-07-30T08:40:01;2.92;;;2.47;;
14681;SDS011;7429;52.498;13.480;2022-07-30T08:43:07;3.03;;;2.67;;
14681;SDS011;7429;52.498;13.480;2022-07-30T08:46:10;4.68;;;2.97;;
14681;SDS011;7429;52.498;13.480;2022-07-30T08:49:23;4.15;;;2.20;;
14681;SDS011;7429;52.498;13.480;2022-07-30T08:52:28;3.30;;;2.60;;
14681;SDS011;7429;52.498;13.480;2022-07-30T08:55:34;2.80;;;2.60;;
14681;SDS011;7429;52.498;13.480;2022-07-30T08:58:40;3.83;;;2.60;;
14681;SDS011;7429;52.498;13.480;2022-07-30T09:01:50;6.38;;;2.65;;
14681;SDS011;7429;52.498;13.480;2022-07-30T09:04:54;3.70;;;2.88;;
14681;SDS011;7429;52.498;13.480;2022-07-30T09:07:58;4.38;;;2.75;;
14681;SDS011;7429;52.498;13.480;2022-07-30T09:11:02;6.25;;;2.13;;
14681;SDS011;7429;52.498;13.480;2022-07-30T09:14:06;4.40;;;2.63;;
14681;SDS011;7429;52.498;13.480;2022-07-30T09:17:11;3.78;;;2.50;;
14681;SDS011;7429;52.498;13.480;2022-07-30T09:20:16;6.85;;;2.70;;
14681;SDS011;7429;52.498;13.480;2022-07-30T09:23:20;3.40;;;2.95;;
14681;SDS011;7429;52.498;13.480;2022-07-30T09:26:53;5.70;;;2.67;;
14681;SDS011;7429;52.498;13.480;2022-07-30T09:30:17;4.65;;;2.55;;
14681;SDS011;7429;52.498;13.480;2022-07-30T09:33:40;6.82;;;2.60;;
14681;SDS011;7429;52.498;13.480;2022-07-30T09:37:17;6.00;;;2.50;;
14681;SDS011;7429;52.498;13.480;2022-07-30T09:40:54;4.75;;;2.72;;
14681;SDS011;7429;52.498;13.480;2022-07-30T09:44:35;3.53;;;2.78;;
14681;SDS011;7429;52.498;13.480;2022-07-30T09:47:39;7.22;;;3.15;;
14681;SDS011;7429;52.498;13.480;2022-07-30T09:50:46;5.90;;;2.90;;
14681;SDS011;7429;52.498;13.480;2022-07-30T09:53:55;4.10;;;3.08;;
14681;SDS011;7429;52.498;13.480;2022-07-30T09:57:03;3.85;;;3.33;;
14681;SDS011;7429;52.498;13.480;2022-07-30T10:00:30;2.60;;;2.40;;
14681;SDS011;7429;52.498;13.480;2022-07-30T10:03:55;2.85;;;2.65;;
14681;SDS011;7429;52.498;13.480;2022-07-30T10:07:28;2.35;;;2.15;;
14681;SDS011;7429;52.498;13.480;2022-07-30T10:10:45;7.78;;;2.20;;
14681;SDS011;7429;52.498;13.480;2022-07-30T10:13:55;3.05;;;2.33;;
14681;SDS011;7429;52.498;13.480;2022-07-30T10:17:00;8.32;;;3.35;;
14681;SDS011;7429;52.498;13.480;2022-07-30T10:20:08;4.20;;;2.05;;
14681;SDS011;7429;52.498;13.480;2022-07-30T10:23:35;2.70;;;2.40;;
14681;SDS011;7429;52.498;13.480;2022-07-30T10:27:04;2.83;;;2.40;;
14681;SDS011;7429;52.498;13.480;2022-07-30T10:30:24;4.03;;;2.40;;
14681;SDS011;7429;52.498;13.480;2022-07-30T10:33:30;3.92;;;2.30;;
14681;SDS011;7429;52.498;13.480;2022-07-30T10:36:40;4.18;;;2.42;;
14681;SDS011;7429;52.498;13.480;2022-07-30T10:39:49;2.75;;;2.10;;
14681;SDS011;7429;52.498;13.480;2022-07-30T10:43:10;3.03;;;2.83;;
14681;SDS011;7429;52.498;13.480;2022-07-30T10:47:09;3.17;;;2.17;;
14681;SDS011;7429;52.498;13.480;2022-07-30T10:50:15;3.67;;;2.25;;
14681;SDS011;7429;52.498;13.480;2022-07-30T10:53:36;5.97;;;2.40;;
14681;SDS011;7429;52.498;13.480;2022-07-30T10:56:41;3.25;;;2.15;;
14681;SDS011;7429;52.498;13.480;2022-07-30T11:03:17;4.55;;;2.47;;
14681;SDS011;7429;52.498;13.480;2022-07-30T11:06:24;2.42;;;2.20;;
14681;SDS011;7429;52.498;13.480;2022-07-30T11:09:33;6.63;;;2.30;;
14681;SDS011;7429;52.498;13.480;2022-07-30T11:12:52;4.70;;;2.38;;
14681;SDS011;7429;52.498;13.480;2022-07-30T11:15:58;2.75;;;2.00;;
14681;SDS011;7429;52.498;13.480;2022-07-30T11:19:06;6.07;;;2.28;;
14681;SDS011;7429;52.498;13.480;2022-07-30T11:22:34;2.33;;;2.08;;
14681;SDS011;7429;52.498;13.480;2022-07-30T11:25:40;2.30;;;2.20;;
14681;SDS011;7429;52.498;13.480;2022-07-30T11:28:54;2.63;;;2.25;;
14681;SDS011;7429;52.498;13.480;2022-07-30T11:35:35;2.67;;;1.95;;
14681;SDS011;7429;52.498;13.480;2022-07-30T11:38:52;2.10;;;1.90;;
14681;SDS011;7429;52.498;13.480;2022-07-30T11:42:23;4.75;;;1.85;;
14681;SDS011;7429;52.498;13.480;2022-07-30T11:45:27;3.83;;;2.20;;
14681;SDS011;7429;52.498;13.480;2022-07-30T11:48:34;1.88;;;1.77;;
14681;SDS011;7429;52.498;13.480;2022-07-30T11:51:39;3.80;;;2.03;;
14681;SDS011;7429;52.498;13.480;2022-07-30T11:54:50;2.58;;;1.83;;
14681;SDS011;7429;52.498;13.480;2022-07-30T11:57:55;4.30;;;3.75;;
14681;SDS011;7429;52.498;13.480;2022-07-30T12:01:03;3.25;;;1.95;;
14681;SDS011;7429;52.498;13.480;2022-07-30T12:04:11;6.05;;;5.47;;
14681;SDS011;7429;52.498;13.480;2022-07-30T12:07:14;6.00;;;5.60;;
14681;SDS011;7429;52.498;13.480;2022-07-30T12:10:24;4.10;;;3.80;;
14681;SDS011;7429;52.498;13.480;2022-07-30T12:13:28;2.30;;;2.15;;
14681;SDS011;7429;52.498;13.480;2022-07-30T12:16:48;3.80;;;3.60;;
14681;SDS011;7429;52.498;13.480;2022-07-30T12:19:53;3.38;;;1.73;;
14681;SDS011;7429;52.498;13.480;2022-07-30T12:22:56;2.65;;;2.45;;
14681;SDS011;7429;52.498;13.480;2022-07-30T12:25:59;2.38;;;1.58;;
14681;SDS011;7429;52.498;13.480;2022-07-30T12:29:04;2.72;;;2.15;;
14681;SDS011;7429;52.498;13.480;2022-07-30T12:32:14;3.38;;;2.20;;
14681;SDS011;7429;52.498;13.480;2022-07-30T12:35:19;3.88;;;2.55;;
14681;SDS011;7429;52.498;13.480;2022-07-30T12:38:23;2.83;;;2.30;;
14681;SDS011;7429;52.498;13.480;2022-07-30T12:41:40;3.22;;;1.50;;
14681;SDS011;7429;52.498;13.480;2022-07-30T12:44:45;4.13;;;1.70;;
14681;SDS011;7429;52.498;13.480;2022-07-30T12:47:49;2.22;;;1.75;;
14681;SDS011;7429;52.498;13.480;2022-07-30T12:51:03;1.98;;;1.35;;
14681;SDS011;7429;52.498;13.480;2022-07-30T12:54:14;1.98;;;1.80;;
14681;SDS011;7429;52.498;13.480;2022-07-30T12:57:20;2.17;;;1.85;;
14681;SDS011;7429;52.498;13.480;2022-07-30T13:00:24;2.13;;;1.75;;
14681;SDS011;7429;52.498;13.480;2022-07-30T13:03:30;2.75;;;1.92;;
14681;SDS011;7429;52.498;13.480;2022-07-30T13:06:40;2.13;;;1.90;;
14681;SDS011;7429;52.498;13.480;2022-07-30T13:09:44;2.78;;;1.80;;
14681;SDS011;7429;52.498;13.480;2022-07-30T13:12:47;2.28;;;2.17;;
14681;SDS011;7429;52.498;13.480;2022-07-30T13:15:57;2.63;;;1.70;;
14681;SDS011;7429;52.498;13.480;2022-07-30T13:19:02;2.72;;;2.00;;
14681;SDS011;7429;52.498;13.480;2022-07-30T13:22:07;4.85;;;1.83;;
14681;SDS011;7429;52.498;13.480;2022-07-30T13:25:10;4.82;;;1.63;;
14681;SDS011;7429;52.498;13.480;2022-07-30T13:28:14;2.75;;;2.10;;
14681;SDS011;7429;52.498;13.480;2022-07-30T13:31:17;2.70;;;1.73;;
14681;SDS011;7429;52.498;13.480;2022-07-30T13:34:20;3.22;;;2.10;;
14681;SDS011;7429;52.498;13.480;2022-07-30T13:37:25;3.97;;;1.88;;
14681;SDS011;7429;52.498;13.480;2022-07-30T13:40:38;3.03;;;2.13;;
14681;SDS011;7429;52.498;13.480;2022-07-30T13:43:42;7.25;;;1.90;;
14681;SDS011;7429;52.498;13.480;2022-07-30T13:46:46;2.28;;;1.80;;
14681;SDS011;7429;52.498;13.480;2022-07-30T13:49:49;4.35;;;2.00;;
14681;SDS011;7429;52.498;13.480;2022-07-30T13:52:53;3.00;;;1.75;;
14681;SDS011;7429;52.498;13.480;2022-07-30T13:56:03;5.40;;;1.42;;
14681;SDS011;7429;52.498;13.480;2022-07-30T13:59:12;4.32;;;1.73;;
14681;SDS011;7429;52.498;13.480;2022-07-30T14:02:15;5.22;;;2.03;;
14681;SDS011;7429;52.498;13.480;2022-07-30T14:05:19;2.20;;;1.77;;
14681;SDS011;7429;52.498;13.480;2022-07-30T14:08:23;5.32;;;2.15;;
14681;SDS011;7429;52.498;13.480;2022-07-30T14:11:29;8.02;;;2.08;;
14681;SDS011;7429;52.498;13.480;2022-07-30T14:14:32;1.63;;;1.40;;
14681;SDS011;7429;52.498;13.480;2022-07-30T14:17:35;2.50;;;1.60;;
14681;SDS011;7429;52.498;13.480;2022-07-30T14:20:38;2.40;;;1.80;;
14681;SDS011;7429;52.498;13.480;2022-07-30T14:23:49;4.95;;;2.33;;
14681;SDS011;7429;52.498;13.480;2022-07-30T14:26:52;3.58;;;2.20;;
14681;SDS011;7429;52.498;13.480;2022-07-30T14:29:59;5.05;;;2.00;;
14681;SDS011;7429;52.498;13.480;2022-07-30T14:33:02;4.00;;;2.65;;
14681;SDS011;7429;52.498;13.480;2022-07-30T14:36:05;4.85;;;1.77;;
14681;SDS011;7429;52.498;13.480;2022-07-30T14:39:10;5.32;;;2.25;;
14681;SDS011;7429;52.498;13.480;2022-07-30T14:42:13;2.78;;;1.95;;
14681;SDS011;7429;52.498;13.480;2022-07-30T14:45:16;1.85;;;1.63;;
14681;SDS011;7429;52.498;13.480;2022-07-30T14:48:19;4.65;;;2.20;;
14681;SDS011;7429;52.498;13.480;2022-07-30T14:51:22;2.80;;;1.45;;
14681;SDS011;7429;52.498;13.480;2022-07-30T14:54:29;3.33;;;2.75;;
14681;SDS011;7429;52.498;13.480;2022-07-30T14:57:33;5.88;;;2.13;;
14681;SDS011;7429;52.498;13.480;2022-07-30T15:00:36;6.10;;;1.60;;
14681;SDS011;7429;52.498;13.480;2022-07-30T15:03:49;1.98;;;1.83;;
14681;SDS011;7429;52.498;13.480;2022-07-30T15:06:52;3.55;;;1.95;;
14681;SDS011;7429;52.498;13.480;2022-07-30T15:09:56;3.88;;;1.60;;
14681;SDS011;7429;52.498;13.480;2022-07-30T15:13:00;2.05;;;1.85;;
14681;SDS011;7429;52.498;13.480;2022-07-30T15:16:04;4.47;;;1.88;;
14681;SDS011;7429;52.498;13.480;2022-07-30T15:19:07;5.93;;;1.90;;
14681;SDS011;7429;52.498;13.480;2022-07-30T15:22:11;5.40;;;1.60;;
14681;SDS011;7429;52.498;13.480;2022-07-30T15:25:16;3.47;;;1.40;;
14681;SDS011;7429;52.498;13.480;2022-07-30T15:28:19;3.30;;;1.85;;
14681;SDS011;7429;52.498;13.480;2022-07-30T15:31:22;1.52;;;1.42;;
14681;SDS011;7429;52.498;13.480;2022-07-30T15:34:25;2.42;;;1.58;;
14681;SDS011;7429;52.498;13.480;2022-07-30T15:37:34;2.70;;;1.90;;
14681;SDS011;7429;52.498;13.480;2022-07-30T15:40:38;4.15;;;2.10;;
14681;SDS011;7429;52.498;13.480;2022-07-30T15:43:42;3.50;;;1.88;;
14681;SDS011;7429;52.498;13.480;2022-07-30T15:46:45;5.10;;;2.08;;
14681;SDS011;7429;52.498;13.480;2022-07-30T15:49:48;3.22;;;2.03;;
14681;SDS011;7429;52.498;13.480;2022-07-30T15:52:52;6.10;;;1.92;;
14681;SDS011;7429;52.498;13.480;2022-07-30T15:55:58;2.35;;;1.50;;
14681;SDS011;7429;52.498;13.480;2022-07-30T15:59:02;5.32;;;1.70;;
14681;SDS011;7429;52.498;13.480;2022-07-30T16:02:05;7.72;;;1.80;;
14681;SDS011;7429;52.498;13.480;2022-07-30T16:05:09;2.33;;;1.40;;
14681;SDS011;7429;52.498;13.480;2022-07-30T16:08:14;3.92;;;1.80;;
14681;SDS011;7429;52.498;13.480;2022-07-30T16:11:19;2.58;;;1.42;;
14681;SDS011;7429;52.498;13.480;2022-07-30T16:14:22;2.38;;;1.70;;
14681;SDS011;7429;52.498;13.480;2022-07-30T16:17:25;4.75;;;2.30;;
14681;SDS011;7429;52.498;13.480;2022-07-30T16:20:29;3.00;;;2.40;;
14681;SDS011;7429;52.498;13.480;2022-07-30T16:23:32;4.43;;;1.73;;
14681;SDS011;7429;52.498;13.480;2022-07-30T16:26:41;4.82;;;1.98;;
14681;SDS011;7429;52.498;13.480;2022-07-30T16:29:44;2.42;;;1.48;;
14681;SDS011;7429;52.498;13.480;2022-07-30T16:32:48;3.15;;;1.85;;
14681;SDS011;7429;52.498;13.480;2022-07-30T16:35:52;4.97;;;2.10;;
14681;SDS011;7429;52.498;13.480;2022-07-30T16:38:55;5.30;;;2.30;;
14681;SDS011;7429;52.498;13.480;2022-07-30T16:41:59;3.00;;;2.60;;
14681;SDS011;7429;52.498;13.480;2022-07-30T16:45:03;1.98;;;1.70;;
14681;SDS011;7429;52.498;13.480;2022-07-30T16:48:07;3.88;;;1.90;;
14681;SDS011;7429;52.498;13.480;2022-07-30T16:51:11;2.00;;;1.55;;
14681;SDS011;7429;52.498;13.480;2022-07-30T16:54:14;2.65;;;2.10;;
14681;SDS011;7429;52.498;13.480;2022-07-30T16:57:18;3.15;;;2.20;;
14681;SDS011;7429;52.498;13.480;2022-07-30T17:00:22;2.65;;;2.45;;
14681;SDS011;7429;52.498;13.480;2022-07-30T17:03:25;3.90;;;2.83;;
14681;SDS011;7429;52.498;13.480;2022-07-30T17:06:29;3.22;;;2.38;;
14681;SDS011;7429;52.498;13.480;2022-07-30T17:09:32;5.00;;;2.80;;
14681;SDS011;7429;52.498;13.480;2022-07-30T17:12:38;2.30;;;2.10;;
14681;SDS011;7429;52.498;13.480;2022-07-30T17:15:51;2.28;;;2.08;;
14681;SDS011;7429;52.498;13.480;2022-07-30T17:18:54;4.45;;;2.10;;
14681;SDS011;7429;52.498;13.480;2022-07-30T17:21:57;5.30;;;2.03;;
14681;SDS011;7429;52.498;13.480;2022-07-30T17:25:01;1.83;;;1.60;;
14681;SDS011;7429;52.498;13.480;2022-07-30T17:28:06;3.30;;;1.80;;
14681;SDS011;7429;52.498;13.480;2022-07-30T17:31:10;4.95;;;2.58;;
14681;SDS011;7429;52.498;13.480;2022-07-30T17:34:13;4.03;;;2.00;;
14681;SDS011;7429;52.498;13.480;2022-07-30T17:37:20;2.75;;;1.63;;
14681;SDS011;7429;52.498;13.480;2022-07-30T17:40:24;4.05;;;2.50;;
14681;SDS011;7429;52.498;13.480;2022-07-30T17:43:33;2.15;;;1.85;;
14681;SDS011;7429;52.498;13.480;2022-07-30T17:46:36;4.95;;;2.70;;
14681;SDS011;7429;52.498;13.480;2022-07-30T17:49:40;2.33;;;2.13;;
14681;SDS011;7429;52.498;13.480;2022-07-30T17:52:43;2.92;;;2.25;;
14681;SDS011;7429;52.498;13.480;2022-07-30T17:55:46;2.30;;;2.20;;
14681;SDS011;7429;52.498;13.480;2022-07-30T17:58:59;2.22;;;2.10;;
14681;SDS011;7429;52.498;13.480;2022-07-30T18:02:03;2.15;;;1.95;;
14681;SDS011;7429;52.498;13.480;2022-07-30T18:05:07;5.75;;;2.08;;
14681;SDS011;7429;52.498;13.480;2022-07-30T18:08:14;8.15;;;2.10;;
14681;SDS011;7429;52.498;13.480;2022-07-30T18:11:17;7.07;;;1.88;;
14681;SDS011;7429;52.498;13.480;2022-07-30T18:14:22;4.13;;;1.80;;
14681;SDS011;7429;52.498;13.480;2022-07-30T18:17:25;2.75;;;1.90;;
14681;SDS011;7429;52.498;13.480;2022-07-30T18:20:28;3.40;;;2.20;;
14681;SDS011;7429;52.498;13.480;2022-07-30T18:23:33;4.07;;;2.03;;
14681;SDS011;7429;52.498;13.480;2022-07-30T18:26:36;3.50;;;2.42;;
14681;SDS011;7429;52.498;13.480;2022-07-30T18:29:41;2.30;;;2.10;;
14681;SDS011;7429;52.498;13.480;2022-07-30T18:32:44;8.85;;;2.60;;
14681;SDS011;7429;52.498;13.480;2022-07-30T18:35:48;2.58;;;2.35;;
14681;SDS011;7429;52.498;13.480;2022-07-30T18:38:51;4.57;;;2.33;;
14681;SDS011;7429;52.498;13.480;2022-07-30T18:41:54;2.35;;;2.17;;
14681;SDS011;7429;52.498;13.480;2022-07-30T18:44:59;3.95;;;2.70;;
14681;SDS011;7429;52.498;13.480;2022-07-30T18:48:03;6.28;;;2.95;;
14681;SDS011;7429;52.498;13.480;2022-07-30T18:51:07;4.00;;;2.67;;
14681;SDS011;7429;52.498;13.480;2022-07-30T18:54:14;2.50;;;2.30;;
14681;SDS011;7429;52.498;13.480;2022-07-30T18:57:18;2.90;;;2.55;;
14681;SDS011;7429;52.498;13.480;2022-07-30T19:00:23;4.53;;;2.65;;